Clayton, LA (71326)

11:49 PM CDT on August 04, 2015 (GMT -0500)
Downtown, | | Change Station
CLOSE
Current Station
Personal Weather Station
Location: Natchez, MS
Elevation: 236 ft
Nearby Weather Stations
Active Advisory: Flood Warning Active Notice: Record Report

Elev 236 ft 31.56 °N, 91.40 °W | Updated 14 seconds ago

Clear
Clear
82.2 °F
Feels Like 92 °F
N
1.3
Wind Variable Wind from South
Gusts 2.5 mph

Today
High -- | Low -- °F
--% Chance of Precip.
Yesterday
High -- | Low -- °F
Precip. -- in
6:23 AM 8:00 PM
Waning Gibbous, 71% visible
Pressure 30.00 in
Visibility 10.0 miles
Clouds Clear
Heat Index 92 °F
Dew Point 79 °F
Humidity 89%
Rainfall 0.00 in
Snow Depth Not available.
UV 0.0 out of 12
Pollen 5.40 out of 12
Air Quality Not available.
Flu Activity Not available.
METAR KHEZ 050435Z AUTO 16003KT 10SM CLR 27/23 A3000 RMK AO1

More Conditions Fewer Conditions

Pressure 30.00 in
Visibility 10.0 miles
Clouds Clear
Heat Index 92 °F
Dew Point 79 °F
Humidity 89%
Rainfall 0.00 in
Snow Depth Not available.
UV 0.0 out of 12
Pollen 5.40 out of 12
Air Quality Not available.
Flu Activity Not available.
METAR KHEZ 050435Z AUTO 16003KT 10SM CLR 27/23 A3000 RMK AO1

More Conditions Fewer Conditions

10-Day Weather Forecast

×

Almanac

Astronomy

Aug. 04, 2015 Rise Set
Actual Time
Civil Twilight
Nautical Twilight
Astronomical Twilight
Moon
Length of Visible Light
Length of Day
Tomorrow will be .
, % of the Moon is Illuminated

Today's Extremes

State Highs State Lows

Community

WunderPhotos

Upload Photos

1,844,094 photos uploaded!

WunderBlogs® & News

Nearby

Air Quality

  Air Quality AQ Index Pollutant
Not available.

Snow Depth

Station Depth Elevation

Earthquake Activity

City Distance Mag. Time & Date
Minimum magnitude displayed is 2.5.

Coastal Water Temperatures

Place Temperature

Stations

Nearby Weather Stations

Station Location Temp. Windchill Dew Point Humidity Wind Precip. Elev Updated Type
                   
Flood Warning
Statement as of 8:21 PM CDT on August 04, 2015


The Flood Warning continues for
the Mississippi River at Natchez
* until Saturday morning.
* At 7:00 PM Tuesday the stage was 51.3 feet and falling.
* Moderate flooding is occurring and moderate flooding is forecast.
* Flood stage is 48 feet.
* Forecast... the river will continue falling and will fall below
flood stage on Friday.
* Impact... at 51 feet... water is covering the roads in old downtown
area of Fort Adams.
* Impact... at 48 feet... Carthage Point Road becomes impassable.
* Impact... at 47 feet... water begins to enter the former Belwood
Golf course and Carthage Point Road area south of Natchez.


              Flood observed forecast 7 am crest
location stg stg day time Wed Thu Fri crest time date

Lower Mississippi River
Natchez 48 51.3 Tue 7 PM 51.0 50.1 48.7 falling




Lat... Lon 3101 9170 3130 9167 3193 9129 3187 9114
      3130 9147 3100 9154




Dl